createdAt,value
2022-11-05T00:00:04.231Z,10.26
2022-11-05T00:02:49.664Z,10.21
2022-11-05T00:05:34.724Z,9.93
2022-11-05T00:08:21.356Z,10.09
2022-11-05T00:10:47.864Z,10.01
2022-11-05T00:13:33.972Z,9.99
2022-11-05T00:16:19.204Z,10.06
2022-11-05T00:19:05.622Z,10.07
2022-11-05T00:22:01.621Z,10.06
2022-11-05T00:24:46.773Z,10.40
2022-11-05T00:27:13.277Z,10.06
2022-11-05T00:29:39.857Z,10.12
2022-11-05T00:32:06.382Z,10.06
2022-11-05T00:34:32.823Z,9.91
2022-11-05T00:36:59.287Z,10.13
2022-11-05T00:39:25.721Z,10.15
2022-11-05T00:42:15.071Z,10.00
2022-11-05T00:45:00.022Z,10.15
2022-11-05T00:47:45.191Z,10.03
2022-11-05T00:50:11.901Z,10.01
2022-11-05T00:52:57.150Z,10.11
2022-11-05T00:55:25.217Z,9.71
2022-11-05T00:57:51.745Z,9.75
2022-11-05T01:00:18.540Z,9.72
2022-11-05T01:02:45.173Z,9.80
2022-11-05T01:05:12.007Z,9.92
2022-11-05T01:07:38.468Z,9.82
2022-11-05T01:10:05.225Z,9.95
2022-11-05T01:12:32.088Z,9.61
2022-11-05T01:14:58.978Z,9.99
2022-11-05T01:17:25.459Z,10.40
2022-11-05T01:19:51.895Z,10.25
2022-11-05T01:22:18.332Z,10.18
2022-11-05T01:24:44.776Z,10.20
2022-11-05T01:27:11.216Z,10.16
2022-11-05T01:29:37.761Z,10.27
2022-11-05T01:32:04.300Z,10.36
2022-11-05T01:34:30.788Z,10.24
2022-11-05T01:36:57.221Z,10.00
2022-11-05T01:39:23.723Z,10.04
2022-11-05T01:41:50.168Z,9.61
2022-11-05T01:44:35.464Z,9.58
2022-11-05T01:47:01.997Z,9.98
2022-11-05T01:49:31.772Z,10.02
2022-11-05T01:51:59.919Z,10.05
2022-11-05T01:54:29.504Z,9.75
2022-11-05T01:56:58.128Z,9.92
2022-11-05T01:59:30.154Z,9.58
2022-11-05T02:01:57.968Z,10.01
2022-11-05T02:04:27.730Z,10.16
2022-11-05T02:06:54.493Z,10.27
2022-11-05T02:09:50.347Z,10.40
2022-11-05T02:12:18.280Z,10.36
2022-11-05T02:14:44.794Z,10.16
2022-11-05T02:17:11.230Z,10.03
2022-11-05T02:19:40.768Z,10.06
2022-11-05T02:22:16.313Z,10.06
2022-11-05T02:24:48.829Z,10.11
2022-11-05T02:27:15.325Z,10.29
2022-11-05T02:29:44.775Z,10.16
2022-11-05T02:32:26.580Z,10.16
2022-11-05T02:34:59.105Z,10.14
2022-11-05T02:37:44.790Z,10.16
2022-11-05T02:40:30.100Z,10.16
2022-11-05T02:42:56.675Z,9.95
2022-11-05T02:45:39.779Z,9.88
2022-11-05T02:48:24.648Z,9.73
2022-11-05T02:51:10.066Z,9.74
2022-11-05T02:53:42.757Z,9.74
2022-11-05T02:56:14.129Z,9.62
2022-11-05T02:58:41.538Z,9.58
2022-11-05T03:01:09.523Z,9.66
2022-11-05T03:03:41.382Z,9.57
2022-11-05T03:06:13.853Z,9.59
2022-11-05T03:08:49.443Z,9.65
2022-11-05T03:11:17.804Z,9.61
2022-11-05T03:13:52.167Z,9.57
2022-11-05T03:16:21.166Z,9.58
2022-11-05T03:18:48.682Z,9.51
2022-11-05T03:21:15.102Z,9.35
2022-11-05T03:23:46.723Z,9.38
2022-11-05T03:26:17.727Z,9.47
2022-11-05T03:28:46.580Z,9.30
2022-11-05T03:31:14.469Z,9.32
2022-11-05T03:33:41.768Z,9.46
2022-11-05T03:36:13.939Z,9.35
2022-11-05T03:38:42.696Z,9.39
2022-11-05T03:41:11.730Z,9.62
2022-11-05T03:43:40.957Z,9.48
2022-11-05T03:46:27.703Z,9.46
2022-11-05T03:48:55.662Z,9.55
2022-11-05T03:51:22.150Z,9.34
2022-11-05T03:53:51.764Z,9.45
2022-11-05T03:56:18.255Z,9.77
2022-11-05T03:58:45.813Z,9.70
2022-11-05T04:01:12.728Z,9.73
2022-11-05T04:03:39.169Z,9.73
2022-11-05T04:06:25.352Z,9.82
2022-11-05T04:09:10.412Z,9.84
2022-11-05T04:11:55.677Z,9.81
2022-11-05T04:14:22.156Z,9.73
2022-11-05T04:17:06.855Z,9.79
2022-11-05T04:19:52.822Z,9.81
2022-11-05T04:22:51.563Z,9.84
2022-11-05T04:25:18.364Z,9.76
2022-11-05T04:27:45.044Z,9.71
2022-11-05T04:30:21.931Z,9.67
2022-11-05T04:33:07.693Z,9.48
2022-11-05T04:35:38.839Z,9.42
2022-11-05T04:38:06.761Z,9.38
2022-11-05T04:40:33.303Z,9.13
2022-11-05T04:42:59.896Z,9.25
2022-11-05T04:45:27.865Z,9.23
2022-11-05T04:47:54.385Z,9.12
2022-11-05T04:50:20.921Z,9.21
2022-11-05T04:52:47.372Z,9.16
2022-11-05T04:55:13.821Z,9.23
2022-11-05T04:57:40.538Z,9.28
2022-11-05T05:00:07.418Z,9.15
2022-11-05T05:02:34.975Z,9.18
2022-11-05T05:05:01.578Z,9.14
2022-11-05T05:07:28.525Z,9.20
2022-11-05T05:09:55.017Z,9.25
2022-11-05T05:12:21.928Z,9.30
2022-11-05T05:14:49.158Z,9.43
2022-11-05T05:17:16.364Z,9.47
2022-11-05T05:20:01.501Z,9.40
2022-11-05T05:22:28.081Z,9.56
2022-11-05T05:24:56.508Z,9.43
2022-11-05T05:27:23.914Z,9.58
2022-11-05T05:29:50.620Z,9.59
2022-11-05T05:32:17.079Z,9.59
2022-11-05T05:34:43.544Z,9.66
2022-11-05T05:37:09.973Z,9.66
2022-11-05T05:39:36.387Z,9.64
2022-11-05T05:42:02.863Z,9.75
2022-11-05T05:44:29.312Z,9.63
2022-11-05T05:46:55.892Z,9.66
2022-11-05T05:49:22.380Z,9.63
2022-11-05T05:51:49.904Z,9.49
2022-11-05T05:54:16.691Z,9.50
2022-11-05T05:56:44.307Z,9.53
2022-11-05T05:59:11.062Z,9.29
2022-11-05T06:01:37.880Z,9.50
2022-11-05T06:04:04.514Z,9.62
2022-11-05T06:06:30.977Z,9.65
2022-11-05T06:08:57.450Z,9.51
2022-11-05T06:11:24.606Z,9.47
2022-11-05T06:13:51.123Z,9.60
2022-11-05T06:16:19.403Z,9.63
2022-11-05T06:18:46.501Z,9.80
2022-11-05T06:21:14.458Z,9.90
2022-11-05T06:23:42.147Z,9.74
2022-11-05T06:26:10.304Z,9.83
2022-11-05T06:28:36.800Z,9.72
2022-11-05T06:31:03.748Z,9.93
2022-11-05T06:33:30.528Z,9.90
2022-11-05T06:36:00.767Z,10.05
2022-11-05T06:38:27.633Z,10.13
2022-11-05T06:40:54.104Z,10.27
2022-11-05T06:43:20.569Z,10.33
2022-11-05T06:45:47.052Z,10.26
2022-11-05T06:48:13.523Z,10.44
2022-11-05T06:50:43.459Z,10.51
2022-11-05T06:53:10.144Z,10.49
2022-11-05T06:55:36.853Z,10.77
2022-11-05T06:58:03.407Z,10.73
2022-11-05T07:00:30.451Z,10.80
2022-11-05T07:03:03.297Z,10.96
2022-11-05T07:05:29.875Z,11.00
2022-11-05T07:07:56.344Z,11.07
2022-11-05T07:10:22.942Z,11.27
2022-11-05T07:12:49.398Z,11.35
2022-11-05T07:15:15.899Z,11.45
2022-11-05T07:17:42.335Z,11.49
2022-11-05T07:20:09.246Z,11.66
2022-11-05T07:22:35.877Z,11.92
2022-11-05T07:25:02.716Z,11.92
2022-11-05T07:27:29.141Z,12.19
2022-11-05T07:29:55.677Z,12.41
2022-11-05T07:32:22.174Z,12.48
2022-11-05T07:34:48.637Z,12.46
2022-11-05T07:37:16.645Z,12.63
2022-11-05T07:39:43.363Z,12.59
2022-11-05T07:42:13.704Z,12.52
2022-11-05T07:44:40.488Z,12.62
2022-11-05T07:47:07.132Z,12.75
2022-11-05T07:49:33.632Z,12.55
2022-11-05T07:52:00.130Z,12.27
2022-11-05T07:54:27.180Z,12.63
2022-11-05T07:56:53.639Z,12.94
2022-11-05T07:59:20.082Z,12.41
2022-11-05T08:01:46.719Z,12.48
2022-11-05T08:04:13.268Z,12.54
2022-11-05T08:06:39.744Z,12.67
2022-11-05T08:09:06.228Z,12.55
2022-11-05T08:11:32.728Z,12.70
2022-11-05T08:13:59.161Z,12.50
2022-11-05T08:16:25.662Z,12.66
2022-11-05T08:18:52.138Z,12.72
2022-11-05T08:21:18.574Z,12.83
2022-11-05T08:23:45.245Z,12.76
2022-11-05T08:26:11.731Z,12.76
2022-11-05T08:28:38.166Z,12.81
2022-11-05T08:31:04.746Z,12.89
2022-11-05T08:33:31.524Z,12.99
2022-11-05T08:36:01.396Z,12.89
2022-11-05T08:38:27.844Z,12.97
2022-11-05T08:40:55.978Z,13.05
2022-11-05T08:43:22.640Z,13.04
2022-11-05T08:45:49.502Z,12.95
2022-11-05T08:48:16.765Z,13.06
2022-11-05T08:50:43.856Z,13.08
2022-11-05T08:53:11.348Z,13.03
2022-11-05T08:55:38.593Z,13.25
2022-11-05T08:58:06.301Z,13.41
2022-11-05T09:00:34.017Z,13.12
2022-11-05T09:03:01.152Z,13.19
2022-11-05T09:05:28.049Z,12.82
2022-11-05T09:08:00.529Z,12.99
2022-11-05T09:10:28.484Z,13.08
2022-11-05T09:12:54.971Z,13.10
2022-11-05T09:15:21.639Z,12.91
2022-11-05T09:17:48.113Z,13.06
2022-11-05T09:20:14.592Z,13.06
2022-11-05T09:22:43.408Z,13.13
2022-11-05T09:25:10.507Z,13.26
2022-11-05T09:27:37.023Z,13.22
2022-11-05T09:30:03.964Z,13.40
2022-11-05T09:32:32.233Z,13.35
2022-11-05T09:35:01.088Z,13.37
2022-11-05T09:37:28.221Z,13.68
2022-11-05T09:39:54.717Z,13.64
2022-11-05T09:42:24.699Z,13.60
2022-11-05T09:44:59.641Z,13.54
2022-11-05T09:47:29.550Z,13.45
2022-11-05T09:49:57.273Z,13.73
2022-11-05T09:52:25.852Z,13.83
2022-11-05T09:54:53.232Z,13.59
2022-11-05T09:57:21.593Z,13.89
2022-11-05T09:59:53.112Z,14.13
2022-11-05T10:02:25.128Z,14.03
2022-11-05T10:04:53.917Z,14.34
2022-11-05T10:07:22.945Z,14.20
2022-11-05T10:09:51.496Z,14.59
2022-11-05T10:12:24.148Z,14.48
2022-11-05T10:14:55.945Z,14.60
2022-11-05T10:17:24.580Z,14.59
2022-11-05T10:19:54.436Z,14.79
2022-11-05T10:22:20.925Z,14.94
2022-11-05T10:24:48.692Z,14.91
2022-11-05T10:27:21.227Z,14.57
2022-11-05T10:29:48.212Z,14.85
2022-11-05T10:32:20.197Z,14.86
2022-11-05T10:34:47.085Z,15.12
2022-11-05T10:37:13.556Z,14.85
2022-11-05T10:39:40.022Z,14.79
2022-11-05T10:42:21.838Z,14.91
2022-11-05T10:45:07.216Z,15.01
2022-11-05T10:47:39.672Z,14.99
2022-11-05T10:50:13.760Z,14.96
2022-11-05T10:52:46.005Z,15.04
2022-11-05T10:55:21.670Z,15.11
2022-11-05T10:57:49.763Z,15.20
2022-11-05T11:00:16.652Z,15.02
2022-11-05T11:02:43.885Z,15.35
2022-11-05T11:05:11.376Z,15.56
2022-11-05T11:07:38.121Z,15.66
2022-11-05T11:10:04.840Z,15.53
2022-11-05T11:12:40.856Z,15.50
2022-11-05T11:15:24.527Z,15.75
2022-11-05T11:17:50.989Z,15.71
2022-11-05T11:20:20.732Z,15.92
2022-11-05T11:23:19.746Z,15.84
2022-11-05T11:26:03.642Z,15.94
2022-11-05T11:28:33.161Z,15.62
2022-11-05T11:31:05.419Z,15.57
2022-11-05T11:33:33.581Z,15.78
2022-11-05T11:36:00.194Z,15.70
2022-11-05T11:38:29.715Z,15.75
2022-11-05T11:40:59.983Z,15.58
2022-11-05T11:43:28.170Z,15.79
2022-11-05T11:45:59.373Z,15.96
2022-11-05T11:48:29.412Z,16.09
2022-11-05T11:50:57.067Z,15.98
2022-11-05T11:53:28.268Z,15.35
2022-11-05T11:55:54.792Z,15.64
2022-11-05T11:58:35.222Z,15.82
2022-11-05T12:01:13.808Z,15.93
2022-11-05T12:03:44.896Z,16.08
2022-11-05T12:06:34.656Z,16.50
2022-11-05T12:09:06.968Z,16.46
2022-11-05T12:11:53.547Z,16.61
2022-11-05T12:14:40.196Z,16.83
2022-11-05T12:17:13.410Z,16.73
2022-11-05T12:19:58.376Z,17.00
2022-11-05T12:22:43.711Z,16.71
2022-11-05T12:25:27.600Z,16.17
2022-11-05T12:27:54.063Z,16.32
2022-11-05T12:30:21.680Z,16.56
2022-11-05T12:33:06.788Z,15.94
2022-11-05T12:35:57.360Z,16.03
2022-11-05T12:38:30.112Z,15.83
2022-11-05T12:41:17.100Z,15.80
2022-11-05T12:43:43.538Z,15.84
2022-11-05T12:46:18.321Z,15.49
2022-11-05T12:48:45.474Z,15.42
2022-11-05T12:51:25.119Z,15.59
2022-11-05T12:53:51.542Z,15.55
2022-11-05T12:56:37.217Z,15.53
2022-11-05T12:59:19.424Z,15.42
2022-11-05T13:01:48.893Z,15.51
2022-11-05T13:04:23.537Z,15.27
2022-11-05T13:06:52.475Z,15.33
2022-11-05T13:09:42.400Z,15.13
2022-11-05T13:12:12.565Z,15.32
2022-11-05T13:14:57.565Z,15.44
2022-11-05T13:17:25.879Z,15.05
2022-11-05T13:20:11.745Z,15.22
2022-11-05T13:22:58.108Z,15.14
2022-11-05T13:25:27.194Z,15.17
2022-11-05T13:27:58.282Z,15.12
2022-11-05T13:30:25.929Z,15.32
2022-11-05T13:33:01.715Z,15.17
2022-11-05T13:35:32.035Z,15.07
2022-11-05T13:38:22.764Z,15.12
2022-11-05T13:40:52.048Z,15.24
2022-11-05T13:43:32.911Z,15.27
2022-11-05T13:46:06.322Z,15.60
2022-11-05T13:48:32.919Z,15.40
2022-11-05T13:51:22.738Z,15.59
2022-11-05T13:54:07.670Z,15.30
2022-11-05T13:57:06.548Z,15.55
2022-11-05T13:59:42.883Z,15.18
2022-11-05T14:02:18.587Z,15.06
2022-11-05T14:04:49.127Z,15.24
2022-11-05T14:07:15.541Z,15.19
2022-11-05T14:09:43.120Z,15.43
2022-11-05T14:12:30.193Z,15.04
2022-11-05T14:15:10.751Z,14.58
2022-11-05T14:17:56.369Z,14.80
2022-11-05T14:20:46.168Z,14.62
2022-11-05T14:23:25.175Z,14.48
2022-11-05T14:25:56.581Z,14.56
2022-11-05T14:28:36.941Z,14.30
2022-11-05T14:31:04.680Z,14.30
2022-11-05T14:33:33.014Z,14.38
2022-11-05T14:36:35.282Z,14.33
2022-11-05T14:39:17.151Z,14.37
2022-11-05T14:42:02.634Z,14.92
2022-11-05T14:44:30.555Z,14.31
2022-11-05T14:47:02.176Z,14.20
2022-11-05T14:49:36.724Z,14.22
2022-11-05T14:52:08.624Z,14.14
2022-11-05T14:54:35.066Z,14.01
2022-11-05T14:57:02.776Z,13.77
2022-11-05T14:59:31.610Z,13.86
2022-11-05T15:02:01.050Z,13.72
2022-11-05T15:04:29.464Z,13.60
2022-11-05T15:07:01.991Z,13.62
2022-11-05T15:09:34.436Z,13.60
2022-11-05T15:12:04.154Z,13.39
2022-11-05T15:14:33.573Z,13.17
2022-11-05T15:17:04.163Z,13.17
2022-11-05T15:19:35.009Z,13.20
2022-11-05T15:22:03.203Z,13.10
2022-11-05T15:24:30.879Z,13.07
2022-11-05T15:27:03.453Z,12.93
2022-11-05T15:29:31.537Z,12.91
2022-11-05T15:31:58.549Z,12.95
2022-11-05T15:34:30.924Z,12.75
2022-11-05T15:37:02.087Z,12.73
2022-11-05T15:39:48.705Z,12.67
2022-11-05T15:42:17.272Z,12.61
2022-11-05T15:44:46.657Z,12.57
2022-11-05T15:47:22.333Z,12.50
2022-11-05T15:49:50.664Z,12.45
2022-11-05T15:52:19.692Z,12.27
2022-11-05T15:54:46.518Z,12.22
2022-11-05T15:57:19.499Z,12.19
2022-11-05T15:59:46.498Z,12.03
2022-11-05T16:02:25.379Z,11.84
2022-11-05T16:04:52.222Z,11.86
2022-11-05T16:07:19.812Z,11.74
2022-11-05T16:10:00.356Z,11.73
2022-11-05T16:12:36.754Z,11.66
2022-11-05T16:15:04.399Z,11.49
2022-11-05T16:17:33.350Z,11.43
2022-11-05T16:19:59.968Z,11.29
2022-11-05T16:22:43.916Z,11.17
2022-11-05T16:25:22.648Z,10.91
2022-11-05T16:27:49.291Z,10.80
2022-11-05T16:30:17.651Z,10.73
2022-11-05T16:32:44.305Z,10.75
2022-11-05T16:35:16.482Z,10.74
2022-11-05T16:37:49.137Z,10.83
2022-11-05T16:40:22.607Z,10.68
2022-11-05T16:42:51.413Z,10.75
2022-11-05T16:45:22.852Z,10.73
2022-11-05T16:47:49.341Z,10.73
2022-11-05T16:50:26.737Z,10.69
2022-11-05T16:52:53.243Z,10.81
2022-11-05T16:55:19.813Z,10.73
2022-11-05T16:57:47.784Z,10.59
2022-11-05T17:00:16.413Z,10.51
2022-11-05T17:02:43.467Z,10.41
2022-11-05T17:05:30.460Z,10.35
2022-11-05T17:07:57.443Z,10.24
2022-11-05T17:10:25.140Z,10.14
2022-11-05T17:12:51.968Z,10.15
2022-11-05T17:15:26.373Z,10.29
2022-11-05T17:17:53.651Z,10.32
2022-11-05T17:20:43.740Z,10.35
2022-11-05T17:23:12.160Z,10.35
2022-11-05T17:25:39.905Z,10.43
2022-11-05T17:28:06.702Z,10.37
2022-11-05T17:30:33.218Z,10.44
2022-11-05T17:32:59.771Z,10.44
2022-11-05T17:35:26.814Z,10.54
2022-11-05T17:37:53.467Z,10.59
2022-11-05T17:40:22.430Z,10.61
2022-11-05T17:42:49.610Z,10.60
2022-11-05T17:45:16.274Z,10.55
2022-11-05T17:47:42.775Z,10.51
2022-11-05T17:50:10.327Z,10.31
2022-11-05T17:52:37.012Z,10.49
2022-11-05T17:55:08.423Z,10.40
2022-11-05T17:57:34.887Z,10.36
2022-11-05T18:00:01.538Z,10.20
2022-11-05T18:02:37.283Z,10.18
2022-11-05T18:05:04.016Z,10.13
2022-11-05T18:07:30.448Z,10.06
2022-11-05T18:09:56.914Z,9.97
2022-11-05T18:12:23.389Z,9.98
2022-11-05T18:14:49.901Z,9.94
2022-11-05T18:17:16.423Z,9.93
2022-11-05T18:19:42.964Z,9.82
2022-11-05T18:22:09.389Z,9.74
2022-11-05T18:24:35.860Z,9.63
2022-11-05T18:27:02.433Z,9.64
2022-11-05T18:29:28.936Z,9.53
2022-11-05T18:31:55.413Z,9.41
2022-11-05T18:34:21.897Z,9.39
2022-11-05T18:36:53.448Z,9.22
2022-11-05T18:39:22.564Z,9.09
2022-11-05T18:41:49.038Z,9.08
2022-11-05T18:44:16.855Z,9.07
2022-11-05T18:46:57.610Z,9.11
2022-11-05T18:49:24.947Z,9.00
2022-11-05T18:51:51.443Z,9.10
2022-11-05T18:54:17.972Z,9.14
2022-11-05T18:56:47.548Z,9.05
2022-11-05T19:02:05.741Z,8.83
2022-11-05T19:04:32.352Z,8.82
2022-11-05T19:07:04.171Z,8.80
2022-11-05T19:09:31.574Z,8.81
2022-11-05T19:11:58.029Z,8.67
2022-11-05T19:14:24.562Z,8.72
2022-11-05T19:16:51.223Z,8.54
2022-11-05T19:19:17.700Z,8.58
2022-11-05T19:21:44.496Z,8.68
2022-11-05T19:24:16.765Z,8.66
2022-11-05T19:26:43.978Z,9.01
2022-11-05T19:29:10.493Z,9.04
2022-11-05T19:31:37.037Z,9.05
2022-11-05T19:34:05.589Z,9.09
2022-11-05T19:36:33.148Z,9.07
2022-11-05T19:39:00.989Z,9.17
2022-11-05T19:41:27.566Z,9.24
2022-11-05T19:43:54.904Z,9.23
2022-11-05T19:46:22.619Z,9.25
2022-11-05T19:48:49.385Z,9.25
2022-11-05T19:51:17.426Z,9.30
2022-11-05T19:53:43.887Z,9.26
2022-11-05T19:56:19.930Z,9.26
2022-11-05T19:58:46.460Z,9.29
2022-11-05T20:01:13.840Z,9.41
2022-11-05T20:03:41.058Z,9.46
2022-11-05T20:06:12.156Z,9.51
2022-11-05T20:08:53.308Z,9.47
2022-11-05T20:11:26.103Z,9.47
2022-11-05T20:13:52.543Z,9.49
2022-11-05T20:16:20.194Z,9.42
2022-11-05T20:18:46.731Z,9.42
2022-11-05T20:21:13.415Z,9.38
2022-11-05T20:23:39.885Z,9.39
2022-11-05T20:26:06.886Z,9.37
2022-11-05T20:28:34.191Z,9.37
2022-11-05T20:31:01.048Z,9.38
2022-11-05T20:33:28.405Z,9.39
2022-11-05T20:35:55.790Z,9.37
2022-11-05T20:38:22.434Z,9.37
2022-11-05T20:40:50.172Z,9.35
2022-11-05T20:43:16.909Z,9.35
2022-11-05T20:45:43.483Z,9.32
2022-11-05T20:48:10.440Z,9.24
2022-11-05T20:50:41.757Z,9.15
2022-11-05T20:53:08.943Z,9.10
2022-11-05T20:55:46.737Z,9.02
2022-11-05T20:58:14.244Z,9.04
2022-11-05T21:00:41.559Z,8.96
2022-11-05T21:03:08.020Z,8.85
2022-11-05T21:05:35.702Z,8.68
2022-11-05T21:08:02.396Z,8.66
2022-11-05T21:10:28.854Z,8.46
2022-11-05T21:12:55.438Z,8.48
2022-11-05T21:15:23.224Z,8.47
2022-11-05T21:17:50.468Z,8.43
2022-11-05T21:20:17.204Z,8.46
2022-11-05T21:22:45.376Z,8.47
2022-11-05T21:25:12.335Z,8.51
2022-11-05T21:27:43.256Z,8.40
2022-11-05T21:30:10.444Z,8.35
2022-11-05T21:32:37.156Z,8.40
2022-11-05T21:35:05.135Z,8.35
2022-11-05T21:37:32.238Z,8.23
2022-11-05T21:39:58.730Z,8.16
2022-11-05T21:42:25.186Z,8.16
2022-11-05T21:44:54.004Z,8.10
2022-11-05T21:47:24.348Z,8.14
2022-11-05T21:49:50.817Z,8.16
2022-11-05T21:52:35.945Z,8.05
2022-11-05T21:55:21.184Z,8.10
2022-11-05T21:58:06.662Z,8.13
2022-11-05T22:00:33.133Z,8.21
2022-11-05T22:03:00.058Z,8.18
2022-11-05T22:05:27.372Z,8.27
2022-11-05T22:07:53.991Z,8.29
2022-11-05T22:10:20.525Z,8.15
2022-11-05T22:12:47.137Z,8.13
2022-11-05T22:15:13.701Z,8.11
2022-11-05T22:17:45.312Z,8.20
2022-11-05T22:20:13.231Z,8.18
2022-11-05T22:22:39.707Z,8.40
2022-11-05T22:25:06.331Z,8.45
2022-11-05T22:27:32.792Z,8.40
2022-11-05T22:29:59.273Z,8.41
2022-11-05T22:32:25.737Z,8.38
2022-11-05T22:34:52.278Z,8.28
2022-11-05T22:37:18.836Z,8.26
2022-11-05T22:39:45.296Z,8.20
2022-11-05T22:42:11.900Z,8.15
2022-11-05T22:44:38.623Z,8.24
2022-11-05T22:47:05.669Z,8.15
2022-11-05T22:49:32.628Z,8.13
2022-11-05T22:51:59.367Z,8.07
2022-11-05T22:54:25.937Z,8.00
2022-11-05T22:56:53.741Z,8.11
2022-11-05T22:59:20.389Z,8.14
2022-11-05T23:01:47.375Z,8.21
2022-11-05T23:04:14.084Z,8.03
2022-11-05T23:06:59.428Z,8.05
2022-11-05T23:09:46.557Z,8.02
2022-11-05T23:12:24.952Z,7.76
2022-11-05T23:14:52.108Z,7.89
2022-11-05T23:17:37.168Z,7.86
2022-11-05T23:20:23.665Z,7.79
2022-11-05T23:23:08.911Z,7.77
2022-11-05T23:25:35.414Z,7.81
2022-11-05T23:28:05.043Z,7.73
2022-11-05T23:30:31.710Z,7.70
2022-11-05T23:32:58.298Z,7.71
2022-11-05T23:35:43.325Z,7.65
2022-11-05T23:38:28.468Z,7.61
2022-11-05T23:41:18.111Z,7.61
2022-11-05T23:44:03.295Z,7.53
2022-11-05T23:46:48.656Z,7.62
2022-11-05T23:49:15.136Z,7.66
2022-11-05T23:51:41.781Z,7.58
2022-11-05T23:54:08.292Z,7.56
2022-11-05T23:56:34.839Z,7.68
2022-11-05T23:59:01.293Z,7.65
